createdAt,value
2023-05-01T00:00:23.840Z,17.90
2023-05-01T00:02:53.116Z,21.52
2023-05-01T00:05:19.640Z,16.85
2023-05-01T00:07:46.128Z,19.88
2023-05-01T00:10:12.536Z,15.38
2023-05-01T00:12:38.980Z,19.10
2023-05-01T00:15:06.840Z,17.73
2023-05-01T00:17:33.343Z,21.42
2023-05-01T00:19:59.958Z,22.48
2023-05-01T00:22:26.751Z,29.55
2023-05-01T00:24:53.195Z,21.27
2023-05-01T00:27:19.596Z,19.30
2023-05-01T00:29:46.436Z,24.23
2023-05-01T00:32:12.947Z,23.73
2023-05-01T00:34:39.772Z,18.88
2023-05-01T00:37:06.199Z,21.70
2023-05-01T00:39:32.630Z,20.70
2023-05-01T00:41:59.073Z,27.15
2023-05-01T00:44:25.803Z,20.73
2023-05-01T00:46:52.223Z,21.02
2023-05-01T00:49:18.737Z,19.75
2023-05-01T00:51:49.450Z,22.85
2023-05-01T00:54:15.862Z,21.42
2023-05-01T00:56:42.809Z,23.42
2023-05-01T00:59:09.247Z,20.83
2023-05-01T01:01:35.843Z,28.00
2023-05-01T01:04:02.362Z,26.60
2023-05-01T01:06:37.784Z,20.48
2023-05-01T01:09:23.612Z,23.02
2023-05-01T01:12:07.531Z,19.50
2023-05-01T01:14:47.557Z,22.38
2023-05-01T01:17:21.161Z,24.02
2023-05-01T01:20:04.033Z,23.38
2023-05-01T01:22:31.920Z,19.17
2023-05-01T01:25:40.805Z,26.08
2023-05-01T01:28:34.603Z,24.70
2023-05-01T01:31:09.424Z,24.50
2023-05-01T01:33:44.825Z,20.63
2023-05-01T01:36:18.891Z,26.02
2023-05-01T01:39:03.664Z,26.55
2023-05-01T01:41:38.610Z,20.48
2023-05-01T01:44:29.855Z,26.42
2023-05-01T01:46:57.350Z,22.95
2023-05-01T01:49:27.641Z,20.90
2023-05-01T01:51:56.595Z,20.70
2023-05-01T01:54:33.445Z,22.70
2023-05-01T01:57:02.543Z,21.00
2023-05-01T01:59:32.954Z,23.48
2023-05-01T02:02:02.695Z,26.30
2023-05-01T02:04:31.492Z,17.27
2023-05-01T02:06:59.108Z,21.77
2023-05-01T02:09:28.061Z,24.10
2023-05-01T02:11:57.490Z,18.20
2023-05-01T02:14:26.901Z,18.90
2023-05-01T02:16:54.884Z,19.58
2023-05-01T02:19:21.525Z,18.25
2023-05-01T02:21:49.512Z,22.23
2023-05-01T02:24:18.255Z,17.95
2023-05-01T02:26:49.576Z,21.15
2023-05-01T02:29:16.078Z,22.52
2023-05-01T02:31:42.521Z,21.75
2023-05-01T02:34:09.308Z,23.15
2023-05-01T02:36:35.731Z,19.95
2023-05-01T02:39:02.339Z,20.65
2023-05-01T02:41:29.883Z,15.32
2023-05-01T02:44:01.782Z,20.33
2023-05-01T02:46:31.014Z,19.67
2023-05-01T02:49:01.645Z,17.77
2023-05-01T02:51:29.112Z,16.30
2023-05-01T02:53:56.300Z,15.15
2023-05-01T02:56:25.951Z,18.63
2023-05-01T02:58:53.656Z,20.02
2023-05-01T03:01:20.778Z,14.77
2023-05-01T03:03:47.825Z,17.05
2023-05-01T03:06:14.378Z,16.20
2023-05-01T03:08:40.987Z,18.90
2023-05-01T03:11:07.938Z,17.17
2023-05-01T03:13:35.183Z,17.60
2023-05-01T03:16:02.151Z,16.52
2023-05-01T03:18:28.595Z,17.20
2023-05-01T03:20:58.771Z,21.20
2023-05-01T03:23:27.963Z,16.15
2023-05-01T03:25:54.783Z,16.38
2023-05-01T03:28:23.497Z,20.58
2023-05-01T03:30:52.656Z,16.95
2023-05-01T03:33:19.344Z,18.50
2023-05-01T03:35:46.390Z,19.48
2023-05-01T03:38:13.454Z,21.42
2023-05-01T03:40:59.991Z,16.60
2023-05-01T03:43:52.687Z,20.58
2023-05-01T03:46:31.486Z,16.08
2023-05-01T03:48:58.031Z,18.88
2023-05-01T03:51:25.687Z,18.90
2023-05-01T03:53:56.624Z,16.58
2023-05-01T03:56:25.687Z,20.33
2023-05-01T03:58:54.848Z,13.32
2023-05-01T04:01:21.311Z,15.38
2023-05-01T04:03:48.325Z,17.48
2023-05-01T04:06:16.434Z,15.43
2023-05-01T04:08:43.159Z,17.95
2023-05-01T04:11:09.578Z,17.33
2023-05-01T04:13:36.073Z,17.00
2023-05-01T04:16:02.899Z,15.40
2023-05-01T04:18:29.367Z,19.38
2023-05-01T04:20:59.101Z,16.83
2023-05-01T04:23:25.691Z,14.77
2023-05-01T04:25:55.949Z,17.10
2023-05-01T04:28:22.447Z,16.58
2023-05-01T04:30:48.869Z,24.50
2023-05-01T04:33:15.713Z,19.15
2023-05-01T04:35:42.191Z,18.00
2023-05-01T04:38:10.395Z,12.00
2023-05-01T04:40:37.561Z,15.57
2023-05-01T04:43:04.285Z,11.00
2023-05-01T04:45:32.676Z,14.60
2023-05-01T04:47:59.864Z,14.40
2023-05-01T04:50:26.754Z,14.88
2023-05-01T04:52:53.251Z,13.70
2023-05-01T04:55:19.687Z,17.88
2023-05-01T04:58:10.433Z,13.68
2023-05-01T05:00:36.954Z,12.65
2023-05-01T05:03:06.727Z,12.48
2023-05-01T05:05:33.294Z,10.40
2023-05-01T05:08:00.213Z,14.75
2023-05-01T05:10:49.053Z,13.18
2023-05-01T05:13:35.769Z,14.40
2023-05-01T05:16:09.076Z,12.27
2023-05-01T05:18:35.530Z,14.50
2023-05-01T05:21:06.403Z,14.00
2023-05-01T05:23:32.899Z,11.38
2023-05-01T05:26:01.621Z,12.05
2023-05-01T05:28:28.480Z,12.07
2023-05-01T05:30:55.919Z,14.82
2023-05-01T05:33:24.987Z,25.92
2023-05-01T05:35:52.763Z,14.35
2023-05-01T05:40:54.149Z,13.23
2023-05-01T05:43:21.225Z,10.43
2023-05-01T05:45:47.688Z,11.38
2023-05-01T05:48:14.316Z,11.75
2023-05-01T05:50:41.241Z,13.55
2023-05-01T05:53:09.852Z,19.17
2023-05-01T05:55:37.001Z,16.30
2023-05-01T05:58:05.703Z,7.72
2023-05-01T06:00:32.329Z,11.20
2023-05-01T06:03:03.905Z,12.35
2023-05-01T06:05:31.275Z,13.05
2023-05-01T06:07:57.762Z,12.52
2023-05-01T06:10:24.258Z,12.73
2023-05-01T06:12:54.912Z,7.60
2023-05-01T06:15:38.228Z,8.40
2023-05-01T06:18:05.565Z,16.92
2023-05-01T06:20:32.248Z,11.50
2023-05-01T06:22:58.734Z,10.75
2023-05-01T06:25:37.988Z,8.75
2023-05-01T06:28:04.550Z,13.02
2023-05-01T06:30:32.682Z,10.77
2023-05-01T06:32:59.201Z,15.00
2023-05-01T06:35:25.729Z,14.88
2023-05-01T06:37:52.148Z,10.98
2023-05-01T06:40:19.247Z,9.73
2023-05-01T06:42:45.745Z,12.45
2023-05-01T06:45:12.175Z,12.30
2023-05-01T06:47:38.646Z,10.60
2023-05-01T06:50:06.023Z,12.48
2023-05-01T06:52:33.227Z,11.23
2023-05-01T06:54:59.716Z,13.05
2023-05-01T06:57:26.160Z,10.57
2023-05-01T06:59:52.586Z,13.57
2023-05-01T07:02:19.071Z,7.60
2023-05-01T07:04:45.584Z,7.38
2023-05-01T07:07:12.039Z,10.68
2023-05-01T07:09:38.753Z,10.13
2023-05-01T07:12:06.743Z,10.55
2023-05-01T07:14:34.812Z,10.05
2023-05-01T07:17:02.256Z,14.93
2023-05-01T07:19:28.867Z,17.65
2023-05-01T07:21:55.280Z,8.38
2023-05-01T07:24:21.690Z,9.23
2023-05-01T07:26:48.090Z,11.93
2023-05-01T07:29:16.425Z,10.52
2023-05-01T07:31:43.372Z,10.65
2023-05-01T07:34:10.187Z,9.20
2023-05-01T07:36:36.589Z,9.48
2023-05-01T07:39:03.841Z,11.63
2023-05-01T07:41:31.206Z,8.40
2023-05-01T07:44:00.862Z,9.52
2023-05-01T07:46:27.374Z,8.52
2023-05-01T07:48:53.897Z,12.82
2023-05-01T07:51:20.334Z,9.65
2023-05-01T07:53:47.385Z,9.52
2023-05-01T07:56:13.786Z,13.68
2023-05-01T07:58:42.487Z,9.25
2023-05-01T08:01:09.229Z,8.80
2023-05-01T08:03:35.981Z,8.75
2023-05-01T08:06:02.507Z,9.38
2023-05-01T08:08:28.966Z,10.13
2023-05-01T08:10:55.394Z,10.80
2023-05-01T08:13:21.940Z,5.72
2023-05-01T08:15:49.548Z,12.50
2023-05-01T08:18:20.348Z,9.30
2023-05-01T08:23:15.852Z,9.23
2023-05-01T08:25:42.345Z,6.78
2023-05-01T08:28:09.416Z,7.63
2023-05-01T08:30:35.843Z,10.35
2023-05-01T08:33:02.326Z,6.43
2023-05-01T08:35:29.373Z,9.38
2023-05-01T08:37:55.843Z,7.75
2023-05-01T08:40:23.977Z,9.20
2023-05-01T08:42:51.227Z,10.02
2023-05-01T08:45:19.838Z,4.97
2023-05-01T08:47:47.971Z,10.82
2023-05-01T08:50:16.390Z,10.70
2023-05-01T08:52:44.102Z,8.48
2023-05-01T08:55:15.119Z,8.98
2023-05-01T08:57:46.536Z,7.45
2023-05-01T09:00:20.919Z,12.45
2023-05-01T09:02:49.359Z,11.23
2023-05-01T09:05:17.256Z,7.88
2023-05-01T09:07:46.004Z,5.53
2023-05-01T09:10:14.085Z,10.45
2023-05-01T09:12:41.981Z,4.53
2023-05-01T09:15:09.634Z,6.68
2023-05-01T09:17:36.896Z,8.68
2023-05-01T09:20:07.711Z,9.18
2023-05-01T09:22:34.860Z,6.47
2023-05-01T09:25:02.092Z,7.07
2023-05-01T09:27:29.700Z,11.27
2023-05-01T09:29:56.425Z,11.57
2023-05-01T09:32:25.781Z,7.10
2023-05-01T09:34:52.890Z,6.32
2023-05-01T09:37:30.850Z,6.65
2023-05-01T09:40:10.597Z,11.95
2023-05-01T09:42:49.500Z,8.60
2023-05-01T09:45:16.168Z,12.13
2023-05-01T09:47:46.640Z,7.07
2023-05-01T09:50:34.351Z,9.95
2023-05-01T09:53:06.404Z,6.80
2023-05-01T09:55:33.734Z,7.70
2023-05-01T09:58:00.464Z,9.43
2023-05-01T10:00:27.139Z,5.47
2023-05-01T10:02:54.009Z,6.05
2023-05-01T10:05:20.544Z,7.05
2023-05-01T10:07:58.987Z,5.57
2023-05-01T10:10:25.728Z,8.20
2023-05-01T10:12:52.288Z,8.88
2023-05-01T10:15:25.272Z,9.02
2023-05-01T10:17:53.651Z,11.85
2023-05-01T10:20:20.332Z,7.13
2023-05-01T10:22:47.195Z,6.95
2023-05-01T10:25:14.047Z,8.10
2023-05-01T10:27:41.165Z,10.38
2023-05-01T10:30:09.431Z,8.32
2023-05-01T10:32:37.788Z,7.25
2023-05-01T10:35:11.269Z,8.60
2023-05-01T10:37:48.592Z,6.47
2023-05-01T10:40:40.217Z,12.10
2023-05-01T10:43:13.432Z,8.25
2023-05-01T10:45:39.856Z,8.57
2023-05-01T10:48:06.301Z,11.93
2023-05-01T10:50:34.663Z,7.40
2023-05-01T10:53:09.975Z,8.80
2023-05-01T10:55:37.828Z,7.38
2023-05-01T10:58:04.456Z,11.02
2023-05-01T11:00:32.459Z,11.57
2023-05-01T11:03:23.471Z,7.55
2023-05-01T11:08:38.291Z,8.63
2023-05-01T11:11:19.991Z,8.40
2023-05-01T11:14:05.935Z,9.75
2023-05-01T11:16:44.190Z,8.60
2023-05-01T11:19:22.694Z,8.15
2023-05-01T11:21:50.521Z,5.43
2023-05-01T11:24:19.666Z,10.40
2023-05-01T11:26:47.276Z,10.57
2023-05-01T11:59:46.110Z,8.63
2023-05-01T12:02:19.866Z,10.68
2023-05-01T12:04:46.878Z,8.38
2023-05-01T12:07:23.313Z,7.30
2023-05-01T12:09:51.323Z,7.20
2023-05-01T12:12:18.111Z,13.95
2023-05-01T12:14:44.716Z,12.07
2023-05-01T12:17:12.274Z,7.65
2023-05-01T12:19:48.878Z,10.10
2023-05-01T12:22:15.383Z,8.35
2023-05-01T12:24:55.207Z,9.75
2023-05-01T12:27:21.726Z,8.70
2023-05-01T12:29:48.310Z,7.93
2023-05-01T12:32:15.549Z,8.95
2023-05-01T12:34:42.103Z,11.80
2023-05-01T12:37:09.845Z,11.68
2023-05-01T12:39:38.657Z,11.20
2023-05-01T12:42:13.053Z,13.65
2023-05-01T12:44:39.547Z,11.82
2023-05-01T12:47:07.924Z,11.30
2023-05-01T12:49:38.391Z,11.85
2023-05-01T12:52:07.193Z,10.85
2023-05-01T12:54:37.754Z,13.40
2023-05-01T12:57:15.380Z,9.55
2023-05-01T12:59:44.233Z,10.48
2023-05-01T13:02:12.779Z,10.27
2023-05-01T13:04:39.967Z,9.57
2023-05-01T13:07:15.073Z,9.68
2023-05-01T13:09:55.282Z,9.85
2023-05-01T13:12:22.652Z,10.03
2023-05-01T13:14:50.059Z,9.60
2023-05-01T13:17:29.375Z,14.35
2023-05-01T13:19:56.949Z,9.68
2023-05-01T13:22:33.371Z,9.05
2023-05-01T13:25:01.355Z,7.22
2023-05-01T13:27:28.700Z,8.18
2023-05-01T13:29:58.110Z,11.10
2023-05-01T13:32:27.865Z,11.70
2023-05-01T13:34:54.398Z,10.95
2023-05-01T13:37:21.366Z,11.73
2023-05-01T13:39:48.244Z,9.35
2023-05-01T13:42:32.565Z,9.55
2023-05-01T13:44:58.998Z,12.07
2023-05-01T13:47:27.444Z,13.43
2023-05-01T13:49:54.098Z,10.02
2023-05-01T13:52:20.834Z,10.80
2023-05-01T13:54:48.462Z,11.68
2023-05-01T13:57:16.087Z,8.65
2023-05-01T13:59:44.530Z,8.40
2023-05-01T14:02:20.287Z,12.00
2023-05-01T14:04:47.230Z,10.13
2023-05-01T14:07:23.152Z,9.52
2023-05-01T14:09:57.599Z,9.85
2023-05-01T14:12:29.465Z,11.23
2023-05-01T14:14:56.461Z,10.20
2023-05-01T14:17:41.244Z,13.68
2023-05-01T14:20:08.707Z,12.80
2023-05-01T14:22:46.826Z,8.23
2023-05-01T14:25:34.752Z,13.25
2023-05-01T14:28:05.466Z,10.50
2023-05-01T14:30:33.756Z,10.13
2023-05-01T14:33:05.060Z,9.55
2023-05-01T14:35:31.957Z,13.27
2023-05-01T14:38:07.921Z,10.60
2023-05-01T14:40:34.656Z,9.18
2023-05-01T14:43:01.503Z,8.10
2023-05-01T14:45:28.065Z,7.47
2023-05-01T14:47:54.563Z,10.25
2023-05-01T14:50:24.945Z,10.13
2023-05-01T14:52:59.834Z,10.80
2023-05-01T14:55:29.281Z,8.10
2023-05-01T14:57:56.909Z,12.02
2023-05-01T15:00:24.370Z,10.63
2023-05-01T15:02:51.125Z,6.72
2023-05-01T15:05:17.903Z,11.40
2023-05-01T15:07:44.517Z,12.23
2023-05-01T15:10:11.064Z,9.32
2023-05-01T15:12:37.476Z,11.43
2023-05-01T15:15:04.370Z,7.43
2023-05-01T15:17:32.452Z,11.07
2023-05-01T15:19:59.065Z,7.90
2023-05-01T15:22:25.561Z,11.52
2023-05-01T15:24:52.077Z,9.63
2023-05-01T15:27:18.511Z,26.40
2023-05-01T15:29:44.925Z,87.13
2023-05-01T15:32:12.756Z,156.00
2023-05-01T15:34:40.082Z,37.03
2023-05-01T15:37:06.649Z,10.65
2023-05-01T15:39:33.422Z,29.67
2023-05-01T15:42:00.871Z,17.25
2023-05-01T15:44:28.655Z,8.73
2023-05-01T15:46:55.275Z,9.55
2023-05-01T15:49:21.836Z,8.35
2023-05-01T15:51:48.241Z,13.55
2023-05-01T15:54:14.643Z,8.45
2023-05-01T15:56:41.087Z,18.27
2023-05-01T15:59:08.145Z,10.38
2023-05-01T16:01:35.499Z,14.35
2023-05-01T16:04:03.358Z,9.32
2023-05-01T16:06:31.380Z,11.27
2023-05-01T16:08:59.277Z,10.82
2023-05-01T16:11:25.719Z,11.20
2023-05-01T16:13:54.024Z,10.45
2023-05-01T16:16:25.590Z,12.60
2023-05-01T16:18:55.374Z,8.27
2023-05-01T16:21:22.965Z,8.73
2023-05-01T16:23:50.955Z,11.30
2023-05-01T16:26:28.435Z,7.00
2023-05-01T16:29:02.148Z,9.93
2023-05-01T16:31:37.582Z,8.27
2023-05-01T16:34:06.385Z,10.40
2023-05-01T16:36:36.728Z,9.55
2023-05-01T16:39:04.068Z,12.90
2023-05-01T16:41:30.526Z,10.55
2023-05-01T16:43:59.949Z,14.52
2023-05-01T16:46:26.494Z,9.73
2023-05-01T16:48:53.113Z,10.50
2023-05-01T16:51:19.999Z,12.90
2023-05-01T16:53:46.463Z,9.57
2023-05-01T16:56:12.899Z,11.55
2023-05-01T16:58:39.342Z,15.73
2023-05-01T17:01:05.884Z,11.35
2023-05-01T17:03:32.447Z,10.38
2023-05-01T17:05:59.087Z,8.70
2023-05-01T17:08:26.011Z,13.63
2023-05-01T17:10:52.433Z,12.13
2023-05-01T17:13:19.502Z,10.23
2023-05-01T17:15:45.917Z,10.07
2023-05-01T17:18:12.478Z,11.85
2023-05-01T17:20:38.968Z,11.13
2023-05-01T17:23:05.493Z,8.77
2023-05-01T17:25:32.002Z,8.93
2023-05-01T17:27:59.179Z,11.88
2023-05-01T17:30:25.617Z,10.65
2023-05-01T17:32:52.646Z,8.77
2023-05-01T17:35:19.209Z,11.93
2023-05-01T17:37:45.793Z,14.13
2023-05-01T17:40:12.402Z,9.52
2023-05-01T17:42:39.026Z,12.57
2023-05-01T17:45:07.447Z,10.00
2023-05-01T17:47:34.608Z,11.05
2023-05-01T17:50:04.802Z,12.60
2023-05-01T17:52:32.037Z,14.43
2023-05-01T17:54:59.040Z,9.00
2023-05-01T17:57:25.770Z,16.45
2023-05-01T17:59:52.583Z,13.25
2023-05-01T18:02:19.156Z,16.42
2023-05-01T18:04:49.630Z,10.40
2023-05-01T18:07:16.370Z,13.35
2023-05-01T18:09:43.115Z,17.73
2023-05-01T18:12:10.276Z,15.73
2023-05-01T18:14:37.121Z,10.75
2023-05-01T18:17:03.658Z,9.88
2023-05-01T18:19:34.132Z,13.00
2023-05-01T18:22:00.963Z,9.82
2023-05-01T18:24:27.410Z,12.63
2023-05-01T18:26:53.819Z,10.25
2023-05-01T18:29:22.641Z,12.90
2023-05-01T18:31:50.938Z,11.98
2023-05-01T18:34:19.100Z,10.40
2023-05-01T18:36:48.449Z,13.27
2023-05-01T18:39:14.874Z,15.07
2023-05-01T18:41:41.492Z,12.90
2023-05-01T18:44:07.894Z,12.30
2023-05-01T18:46:34.403Z,12.45
2023-05-01T18:49:01.289Z,16.17
2023-05-01T18:51:27.749Z,10.70
2023-05-01T18:53:54.593Z,12.23
2023-05-01T18:56:21.986Z,17.63
2023-05-01T18:58:48.438Z,12.48
2023-05-01T19:01:14.873Z,15.35
2023-05-01T19:03:41.321Z,11.73
2023-05-01T19:06:10.335Z,14.13
2023-05-01T19:08:37.062Z,14.70
2023-05-01T19:11:04.725Z,12.00
2023-05-01T19:13:32.310Z,9.45
2023-05-01T19:15:58.802Z,11.32
2023-05-01T19:18:25.833Z,8.93
2023-05-01T19:20:52.239Z,13.05
2023-05-01T19:23:18.686Z,12.23
2023-05-01T19:25:45.140Z,14.25
2023-05-01T19:28:11.561Z,13.50
2023-05-01T19:30:37.978Z,15.57
2023-05-01T19:33:04.540Z,21.15
2023-05-01T19:35:31.008Z,16.67
2023-05-01T19:37:58.314Z,14.38
2023-05-01T19:40:24.864Z,15.02
2023-05-01T19:42:51.530Z,12.65
2023-05-01T19:45:18.169Z,16.13
2023-05-01T19:47:45.802Z,15.70
2023-05-01T19:50:12.400Z,12.80
2023-05-01T19:52:38.838Z,17.02
2023-05-01T19:55:05.597Z,16.55
2023-05-01T19:57:32.154Z,15.32
2023-05-01T19:59:59.114Z,12.82
2023-05-01T20:02:25.814Z,16.15
2023-05-01T20:04:52.373Z,14.15
2023-05-01T20:07:18.862Z,13.40
2023-05-01T20:09:45.303Z,15.75
2023-05-01T20:12:12.066Z,15.85
2023-05-01T20:14:38.468Z,15.02
2023-05-01T20:17:07.058Z,11.50
2023-05-01T20:19:33.770Z,12.38
2023-05-01T20:22:00.164Z,16.10
2023-05-01T20:24:26.633Z,15.75
2023-05-01T20:26:55.571Z,10.60
2023-05-01T20:29:21.999Z,15.25
2023-05-01T20:31:49.037Z,10.38
2023-05-01T20:34:15.556Z,12.27
2023-05-01T20:36:42.302Z,14.27
2023-05-01T20:39:08.778Z,20.42
2023-05-01T20:41:35.181Z,18.45
2023-05-01T20:44:02.320Z,17.05
2023-05-01T20:46:29.036Z,16.23
2023-05-01T20:48:55.962Z,16.50
2023-05-01T20:51:22.448Z,17.48
2023-05-01T20:53:48.910Z,14.02
2023-05-01T20:56:15.359Z,11.82
2023-05-01T20:58:41.791Z,16.27
2023-05-01T21:01:08.329Z,17.25
2023-05-01T21:03:34.878Z,27.38
2023-05-01T21:06:01.921Z,12.82
2023-05-01T21:08:28.925Z,14.52
2023-05-01T21:10:55.634Z,14.75
2023-05-01T21:13:24.633Z,13.52
2023-05-01T21:15:52.255Z,14.30
2023-05-01T21:18:20.350Z,17.48
2023-05-01T21:20:48.630Z,13.60
2023-05-01T21:23:16.067Z,15.80
2023-05-01T21:25:42.764Z,13.13
2023-05-01T21:28:13.648Z,12.90
2023-05-01T21:30:40.548Z,19.15
2023-05-01T21:33:14.328Z,16.35
2023-05-01T21:35:42.878Z,14.07
2023-05-01T21:38:09.811Z,12.82
2023-05-01T21:40:38.124Z,15.85
2023-05-01T21:43:05.845Z,15.27
2023-05-01T21:45:34.280Z,16.02
2023-05-01T21:48:00.781Z,13.90
2023-05-01T21:50:33.676Z,18.10
2023-05-01T21:53:00.180Z,21.05
2023-05-01T21:55:26.591Z,13.68
2023-05-01T21:57:53.359Z,23.00
2023-05-01T22:00:20.943Z,15.65
2023-05-01T22:02:49.631Z,16.48
2023-05-01T22:05:18.250Z,15.93
2023-05-01T22:07:46.213Z,15.18
2023-05-01T22:10:15.590Z,16.13
2023-05-01T22:12:42.856Z,15.27
2023-05-01T22:15:10.953Z,17.73
2023-05-01T22:17:38.484Z,19.38
2023-05-01T22:20:07.112Z,15.65
2023-05-01T22:22:34.450Z,11.98
2023-05-01T22:25:00.886Z,12.43
2023-05-01T22:27:27.321Z,12.07
2023-05-01T22:29:53.947Z,14.40
2023-05-01T22:32:20.749Z,12.82
2023-05-01T22:34:47.423Z,11.45
2023-05-01T22:37:13.948Z,13.23
2023-05-01T22:39:40.346Z,12.48
2023-05-01T22:42:06.782Z,9.85
2023-05-01T22:44:33.313Z,9.77
2023-05-01T22:46:59.710Z,14.43
2023-05-01T22:49:28.500Z,15.63
2023-05-01T22:51:55.502Z,13.93
2023-05-01T22:54:22.121Z,11.40
2023-05-01T22:56:49.895Z,13.57
2023-05-01T22:59:16.921Z,11.13
2023-05-01T23:01:44.537Z,15.25
2023-05-01T23:04:11.590Z,13.18
2023-05-01T23:06:38.250Z,12.63
2023-05-01T23:09:04.685Z,10.95
2023-05-01T23:11:32.524Z,11.43
2023-05-01T23:13:59.662Z,13.50
2023-05-01T23:16:26.419Z,9.13
2023-05-01T23:18:52.968Z,12.63
2023-05-01T23:21:19.705Z,10.95
2023-05-01T23:23:47.028Z,15.27
2023-05-01T23:26:25.452Z,13.13
2023-05-01T23:28:53.071Z,10.77
2023-05-01T23:31:27.497Z,10.70
2023-05-01T23:33:55.271Z,17.65
2023-05-01T23:36:22.264Z,14.90
2023-05-01T23:38:48.712Z,11.98
2023-05-01T23:41:15.406Z,9.02
2023-05-01T23:43:42.490Z,11.55
2023-05-01T23:46:08.901Z,12.27
2023-05-01T23:48:36.151Z,10.38
2023-05-01T23:51:03.213Z,12.35
2023-05-01T23:53:30.458Z,11.98
2023-05-01T23:55:57.148Z,9.13
2023-05-01T23:58:23.772Z,10.73
